Time;durP1;ratioP1;P1;durP2;ratioP2;P2;SDS_P1;SDS_P2;PMS_P1;PMS_P2;Temp;Humidity;BMP_temperature;BMP_pressure;BME280_temperature;BME280_humidity;BME280_pressure;Samples;Min_cycle;Max_cycle;Signal;HPM_P1;HPM_P2
2022/05/01 00:02:17;;;;;;;16.60;15.90;;;;;;;-141.02;100.00;55844.97;5094723;28;20233;-85
2022/05/01 00:04:46;;;;;;;16.60;15.90;;;;;;;-141.02;100.00;55844.97;5094144;28;20222;-82
2022/05/01 00:07:13;;;;;;;16.52;15.82;;;;;;;-141.02;100.00;55844.97;5094767;28;20276;-83
2022/05/01 00:09:41;;;;;;;16.75;15.95;;;;;;;-141.02;100.00;55844.97;5094437;28;20201;-83
2022/05/01 00:12:09;;;;;;;15.98;15.27;;;;;;;-141.02;100.00;55844.97;5094930;28;20308;-82
2022/05/01 00:14:36;;;;;;;16.00;15.30;;;;;;;-141.02;100.00;55844.97;5094585;28;20232;-76
2022/05/01 00:17:03;;;;;;;16.73;16.02;;;;;;;-141.02;100.00;55844.97;5094799;28;20240;-86
2022/05/01 00:19:30;;;;;;;16.52;15.82;;;;;;;-141.02;100.00;55844.97;5094530;28;20190;-87
2022/05/01 00:21:59;;;;;;;16.02;15.32;;;;;;;-141.02;100.00;55844.97;5095143;28;20626;-77
2022/05/01 00:24:26;;;;;;;16.33;15.63;;;;;;;-141.02;100.00;55844.97;5094249;28;20208;-84
2022/05/01 00:26:54;;;;;;;16.42;15.73;;;;;;;-141.02;100.00;55844.97;5093525;28;20201;-78
2022/05/01 00:29:21;;;;;;;16.77;16.08;;;;;;;-141.02;100.00;55844.97;5094497;28;20657;-79
2022/05/01 00:31:48;;;;;;;16.40;15.70;;;;;;;-141.02;100.00;55844.97;5093883;28;20257;-80
2022/05/01 00:37:01;;;;;;;16.27;15.57;;;;;;;-141.02;100.00;55844.97;5094236;28;20316;-85
2022/05/01 00:39:28;;;;;;;16.10;15.40;;;;;;;-141.02;100.00;55844.97;5094278;28;20193;-87
2022/05/01 00:41:55;;;;;;;15.63;15.03;;;;;;;-141.02;100.00;55844.97;5093847;28;20728;-76
2022/05/01 00:44:22;;;;;;;16.13;15.43;;;;;;;-141.02;100.00;55844.97;5093793;28;20707;-84
2022/05/01 00:46:50;;;;;;;16.38;15.68;;;;;;;-141.02;100.00;55844.97;5094019;28;20201;-83
2022/05/01 00:49:19;;;;;;;16.13;15.43;;;;;;;-141.02;100.00;55844.97;5093699;28;20189;-88
2022/05/01 00:51:49;;;;;;;15.57;14.98;;;;;;;-141.02;100.00;55844.97;5094550;28;20231;-80
2022/05/01 00:54:20;;;;;;;16.00;15.30;;;;;;;-141.02;100.00;55844.97;5093543;28;20233;-75
2022/05/01 00:56:50;;;;;;;16.40;15.70;;;;;;;-141.02;100.00;55844.97;5093687;28;20197;-83
2022/05/01 00:59:18;;;;;;;16.20;15.50;;;;;;;-141.02;100.00;55844.97;5093833;28;20276;-87
2022/05/01 01:01:46;;;;;;;15.60;15.00;;;;;;;-141.02;100.00;55844.97;5093445;28;20197;-83
2022/05/01 01:04:14;;;;;;;15.93;15.23;;;;;;;-141.02;100.00;55844.97;5093107;28;20269;-80
2022/05/01 01:06:42;;;;;;;16.20;15.50;;;;;;;-141.02;100.00;55844.97;5093398;28;20222;-83
2022/05/01 01:09:10;;;;;;;15.90;15.20;;;;;;;-141.02;100.00;55844.97;5093210;28;20198;-86
2022/05/01 01:11:39;;;;;;;15.23;14.63;;;;;;;-141.02;100.00;55844.97;5093028;28;20224;-79
2022/05/01 01:14:08;;;;;;;16.00;15.30;;;;;;;-141.02;100.00;55844.97;5092952;28;20205;-83
2022/05/01 01:16:36;;;;;;;16.03;15.33;;;;;;;-141.02;100.00;55844.97;5093039;28;20233;-84
2022/05/01 01:19:04;;;;;;;15.40;14.80;;;;;;;-141.02;100.00;55844.97;5093422;28;20190;-86
2022/05/01 01:21:33;;;;;;;15.67;15.07;;;;;;;-141.02;100.00;55844.97;5093351;28;20579;-82
2022/05/01 01:24:03;;;;;;;16.38;15.68;;;;;;;-141.02;100.00;55844.97;5093037;28;20297;-81
2022/05/01 01:26:30;;;;;;;15.63;15.03;;;;;;;-141.02;100.00;55844.97;5092802;28;20549;-84
2022/05/01 01:28:58;;;;;;;15.87;15.17;;;;;;;-141.02;100.00;55844.97;5093227;28;20225;-87
2022/05/01 01:31:43;;;;;;;16.10;15.40;;;;;;;-141.02;100.00;55844.97;5093225;28;20201;-80
2022/05/01 01:34:13;;;;;;;15.73;15.13;;;;;;;-141.02;100.00;55844.97;5093081;28;20645;-89
2022/05/01 01:36:42;;;;;;;15.90;15.27;;;;;;;-141.02;100.00;55844.97;5093004;28;20651;-80
2022/05/01 01:39:10;;;;;;;15.90;15.20;;;;;;;-141.02;100.00;55844.97;5093068;28;20280;-80
2022/05/01 01:41:41;;;;;;;15.50;14.90;;;;;;;-141.02;100.00;55844.97;5093091;28;20201;-84
2022/05/01 01:44:09;;;;;;;16.17;15.47;;;;;;;-141.02;100.00;55844.97;5093296;28;20268;-79
2022/05/01 01:46:39;;;;;;;16.40;15.70;;;;;;;-141.02;100.00;55844.97;5092782;28;20197;-84
2022/05/01 01:49:09;;;;;;;16.20;15.50;;;;;;;-141.02;100.00;55844.97;5092851;28;20194;-83
2022/05/01 01:51:36;;;;;;;16.00;15.30;;;;;;;-141.02;100.00;55844.97;5092424;28;20197;-78
2022/05/01 01:54:06;;;;;;;15.90;15.20;;;;;;;-141.02;100.00;55844.97;5092800;28;20679;-79
2022/05/01 01:56:33;;;;;;;16.07;15.37;;;;;;;-141.02;100.00;55844.97;5093006;28;20224;-82
2022/05/01 01:59:00;;;;;;;15.67;15.07;;;;;;;-141.02;100.00;55844.97;5092741;28;20720;-82
2022/05/01 02:01:27;;;;;;;15.57;14.97;;;;;;;-141.02;100.00;55844.97;5093089;28;20193;-79
2022/05/01 02:03:54;;;;;;;15.70;15.00;;;;;;;-141.02;100.00;55844.97;5092816;28;20229;-81
2022/05/01 02:06:21;;;;;;;15.87;15.17;;;;;;;-141.02;100.00;55844.97;5093178;28;20672;-88
2022/05/01 02:08:48;;;;;;;15.63;14.97;;;;;;;-141.02;100.00;55844.97;5093332;28;20731;-85
2022/05/01 02:11:17;;;;;;;15.87;15.27;;;;;;;-141.02;100.00;55844.97;5092868;28;20236;-84
2022/05/01 02:13:44;;;;;;;16.20;15.50;;;;;;;-141.02;100.00;55844.97;5092692;28;20225;-76
2022/05/01 02:16:11;;;;;;;15.90;15.20;;;;;;;-141.02;100.00;55844.97;5093803;28;20197;-87
2022/05/01 02:18:38;;;;;;;15.70;15.00;;;;;;;-141.02;100.00;55844.97;5093076;28;20221;-83
2022/05/01 02:23:49;;;;;;;16.07;15.37;;;;;;;-141.02;100.00;55844.97;5093232;28;20184;-84
2022/05/01 02:26:18;;;;;;;16.40;15.70;;;;;;;-141.02;100.00;55844.97;5093260;28;20194;-81
2022/05/01 02:28:46;;;;;;;16.30;15.60;;;;;;;-141.02;100.00;55844.97;5092945;28;20190;-78
2022/05/01 02:31:13;;;;;;;16.07;15.37;;;;;;;-141.02;100.00;55844.97;5093773;28;20200;-85
2022/05/01 02:33:40;;;;;;;16.30;15.60;;;;;;;-141.02;100.00;55844.97;5092861;28;20225;-90
2022/05/01 02:36:07;;;;;;;16.10;15.40;;;;;;;-141.02;100.00;55844.97;5092871;28;20216;-86
2022/05/01 02:38:35;;;;;;;16.37;15.67;;;;;;;-141.02;100.00;55844.97;5092679;28;20648;-81
2022/05/01 02:41:02;;;;;;;16.30;15.60;;;;;;;-141.02;100.00;55844.97;5092836;28;20284;-79
2022/05/01 02:43:31;;;;;;;16.27;15.57;;;;;;;-141.02;100.00;55844.97;5092859;28;20615;-85
2022/05/01 02:45:58;;;;;;;16.13;15.43;;;;;;;-141.02;100.00;55844.97;5094262;28;20229;-79
2022/05/01 02:48:25;;;;;;;15.73;15.03;;;;;;;-141.02;100.00;55844.97;5092287;28;20233;-81
2022/05/01 02:50:52;;;;;;;15.90;15.20;;;;;;;-141.02;100.00;55844.97;5095047;28;20190;-88
2022/05/01 02:53:19;;;;;;;16.20;15.50;;;;;;;-141.02;100.00;55844.97;5096131;28;20633;-87
2022/05/01 02:55:46;;;;;;;16.10;15.40;;;;;;;-141.02;100.00;55844.97;5096189;28;20634;-86
2022/05/01 02:58:13;;;;;;;15.90;15.20;;;;;;;-141.02;100.00;55844.97;5097095;28;20229;-91
2022/05/01 03:00:41;;;;;;;15.50;14.90;;;;;;;-141.02;100.00;55844.97;5096360;28;20277;-86
2022/05/01 03:03:08;;;;;;;16.27;15.57;;;;;;;-141.02;100.00;55844.97;5095899;28;20283;-90
2022/05/01 03:05:36;;;;;;;15.77;15.10;;;;;;;-141.02;100.00;55844.97;5096198;28;20230;-87
2022/05/01 03:08:03;;;;;;;16.00;15.30;;;;;;;-141.02;100.00;55844.97;5095777;28;20731;-82
2022/05/01 03:10:30;;;;;;;16.00;15.30;;;;;;;-141.02;100.00;55844.97;5096828;28;20280;-90
2022/05/01 03:12:57;;;;;;;16.13;15.43;;;;;;;-141.02;100.00;55844.97;5096489;28;20703;-79
2022/05/01 03:15:24;;;;;;;16.73;16.03;;;;;;;-141.02;100.00;55844.97;5096194;28;20285;-83
2022/05/01 03:23:21;;;;;;;15.10;14.50;;;;;;;-141.02;100.00;55844.97;5096406;28;20252;-87
2022/05/01 03:25:48;;;;;;;14.70;14.20;;;;;;;-141.02;100.00;55844.97;5095905;28;20200;-80
2022/05/01 03:28:15;;;;;;;15.37;14.77;;;;;;;-141.02;100.00;55844.97;5096146;28;20202;-84
2022/05/01 03:30:42;;;;;;;15.20;14.60;;;;;;;-141.02;100.00;55844.97;5095498;28;20198;-83
2022/05/01 03:33:11;;;;;;;15.30;14.70;;;;;;;-141.02;100.00;55844.97;5096594;28;20238;-81
2022/05/01 03:35:38;;;;;;;15.00;14.40;;;;;;;-141.02;100.00;55844.97;5095654;28;20233;-90
2022/05/01 03:38:07;;;;;;;15.20;14.60;;;;;;;-141.02;100.00;55844.97;5096190;28;20277;-83
2022/05/01 03:40:35;;;;;;;15.10;14.50;;;;;;;-141.02;100.00;55844.97;5096049;28;20193;-89
2022/05/01 03:43:02;;;;;;;14.73;14.13;;;;;;;-141.02;100.00;55844.97;5096095;28;20208;-85
2022/05/01 03:45:29;;;;;;;14.97;14.37;;;;;;;-141.02;100.00;55844.97;5095589;28;20289;-87
2022/05/01 03:47:56;;;;;;;14.63;14.03;;;;;;;-141.02;100.00;55844.97;5096024;28;20779;-87
2022/05/01 03:50:24;;;;;;;14.70;14.10;;;;;;;-141.02;100.00;55844.97;5095738;28;20661;-83
2022/05/01 03:52:51;;;;;;;14.27;13.77;;;;;;;-141.02;100.00;55844.97;5095285;28;20680;-85
2022/05/01 03:55:18;;;;;;;14.60;14.00;;;;;;;-141.02;100.00;55844.97;5095640;28;20208;-86
2022/05/01 03:57:45;;;;;;;15.00;14.40;;;;;;;-141.02;100.00;55844.97;5094998;28;20255;-83
2022/05/01 04:00:18;;;;;;;15.67;14.97;;;;;;;-141.02;100.00;55844.97;5095593;28;20194;-84
2022/05/01 04:02:46;;;;;;;15.60;14.90;;;;;;;-141.02;100.00;55844.97;5096295;28;20239;-90
2022/05/01 04:05:13;;;;;;;15.87;15.10;;;;;;;-141.02;100.00;55844.97;5095433;28;20292;-78
2022/05/01 04:07:42;;;;;;;19.27;18.17;;;;;;;-141.02;100.00;55844.97;5095852;28;20276;-87
2022/05/01 04:10:10;;;;;;;24.13;22.92;;;;;;;-141.02;100.00;55844.97;5096832;28;20190;-89
2022/05/01 04:12:37;;;;;;;18.53;17.73;;;;;;;-141.02;100.00;55844.97;5095719;28;20317;-88
2022/05/01 04:15:07;;;;;;;15.00;14.40;;;;;;;-141.02;100.00;55844.97;5095501;28;20193;-85
2022/05/01 04:17:39;;;;;;;15.00;14.40;;;;;;;-141.02;100.00;55844.97;5095857;28;20200;-85
2022/05/01 04:20:08;;;;;;;15.60;14.90;;;;;;;-141.02;100.00;55844.97;5094861;28;20251;-86
2022/05/01 04:22:41;;;;;;;16.20;15.50;;;;;;;-141.02;100.00;55844.97;5095495;28;20194;-82
2022/05/01 04:25:16;;;;;;;15.93;15.23;;;;;;;-141.02;100.00;55844.97;5096498;28;20198;-83
2022/05/01 04:27:44;;;;;;;16.50;15.80;;;;;;;-141.02;100.00;55844.97;5094916;28;20185;-76
2022/05/01 04:30:12;;;;;;;16.73;16.02;;;;;;;-141.02;100.00;55844.97;5095336;28;20609;-78
2022/05/01 04:32:50;;;;;;;16.20;15.50;;;;;;;-141.02;100.00;55844.97;5094523;28;20221;-88
2022/05/01 04:35:22;;;;;;;16.20;15.50;;;;;;;-141.02;100.00;55844.97;5094981;28;20195;-81
2022/05/01 04:37:50;;;;;;;16.40;15.70;;;;;;;-141.02;100.00;55844.97;5094760;28;20618;-80
2022/05/01 04:40:18;;;;;;;16.50;15.80;;;;;;;-141.02;100.00;55844.97;5094597;28;20376;-85
2022/05/01 04:42:45;;;;;;;16.42;15.73;;;;;;;-141.02;100.00;55844.97;5094934;28;20197;-89
2022/05/01 04:45:13;;;;;;;16.38;15.68;;;;;;;-141.02;100.00;55844.97;5094168;28;20194;-78
2022/05/01 04:47:40;;;;;;;16.17;15.48;;;;;;;-141.02;100.00;55844.97;5094309;28;20720;-75
2022/05/01 04:50:09;;;;;;;16.05;15.35;;;;;;;-141.02;100.00;55844.97;5095471;28;20236;-84
2022/05/01 04:52:38;;;;;;;16.02;15.23;;;;;;;-141.02;100.00;55844.97;5095090;28;20225;-85
2022/05/01 04:55:07;;;;;;;17.00;16.20;;;;;;;-141.02;100.00;55844.97;5096030;28;20589;-84
2022/05/01 04:57:35;;;;;;;16.13;15.32;;;;;;;-141.02;100.00;55844.97;5094182;28;20280;-83
2022/05/01 05:00:02;;;;;;;15.90;15.10;;;;;;;-141.02;100.00;55844.97;5094243;28;20198;-80
2022/05/01 05:02:39;;;;;;;16.90;16.10;;;;;;;-141.02;100.00;55844.97;5094385;28;20205;-88
2022/05/01 05:05:09;;;;;;;17.00;16.20;;;;;;;-141.02;100.00;55844.97;5093585;28;20768;-83
2022/05/01 05:07:37;;;;;;;16.77;15.98;;;;;;;-141.02;100.00;55844.97;5093642;28;20194;-83
2022/05/01 05:10:06;;;;;;;16.30;15.60;;;;;;;-141.02;100.00;55844.97;5094281;28;20284;-88
2022/05/01 05:12:35;;;;;;;16.38;15.68;;;;;;;-141.02;100.00;55844.97;5092960;28;20247;-90
2022/05/01 05:15:04;;;;;;;17.25;16.45;;;;;;;-141.02;100.00;55844.97;5093299;28;20625;-83
2022/05/01 05:17:32;;;;;;;16.77;15.98;;;;;;;-141.02;100.00;55844.97;5093776;28;20204;-84
2022/05/01 05:20:00;;;;;;;16.65;15.85;;;;;;;-141.02;100.00;55844.97;5093179;28;20255;-82
2022/05/01 05:22:28;;;;;;;16.63;15.82;;;;;;;-141.02;100.00;55844.97;5093253;28;20194;-86
2022/05/01 05:24:55;;;;;;;16.67;15.88;;;;;;;-141.02;100.00;55844.97;5093074;28;20243;-83
2022/05/01 05:27:25;;;;;;;16.40;15.70;;;;;;;-141.02;100.00;55844.97;5093067;28;20197;-82
2022/05/01 05:29:53;;;;;;;16.38;15.68;;;;;;;-141.02;100.00;55844.97;5093198;28;20239;-78
2022/05/01 05:32:20;;;;;;;16.58;15.77;;;;;;;-141.02;100.00;55844.97;5093481;28;20308;-81
2022/05/01 05:34:47;;;;;;;16.73;15.93;;;;;;;-141.02;100.00;55844.97;5092681;28;20754;-86
2022/05/01 05:37:14;;;;;;;16.80;16.00;;;;;;;-141.02;100.00;55844.97;5093433;28;20227;-86
2022/05/01 05:39:41;;;;;;;16.50;15.75;;;;;;;-141.02;100.00;55844.97;5093406;28;20225;-90
2022/05/01 05:42:08;;;;;;;17.30;16.40;;;;;;;-141.02;100.00;55844.97;5092744;28;20233;-79
2022/05/01 05:44:37;;;;;;;16.27;15.57;;;;;;;-141.02;100.00;55844.97;5093320;28;20247;-86
2022/05/01 05:47:05;;;;;;;16.58;15.88;;;;;;;-141.02;100.00;55844.97;5092861;28;20743;-84
2022/05/01 05:49:32;;;;;;;16.42;15.73;;;;;;;-141.02;100.00;55844.97;5093169;28;20197;-85
2022/05/01 05:52:00;;;;;;;16.33;15.63;;;;;;;-141.02;100.00;55844.97;5093068;28;20198;-85
2022/05/01 05:54:27;;;;;;;16.30;15.60;;;;;;;-141.02;100.00;55844.97;5092619;28;20234;-80
2022/05/01 05:56:54;;;;;;;16.15;15.45;;;;;;;-141.02;100.00;55844.97;5093083;28;20193;-84
2022/05/01 05:59:21;;;;;;;16.17;15.48;;;;;;;-141.02;100.00;55844.97;5092721;28;20234;-81
2022/05/01 06:01:49;;;;;;;16.52;15.73;;;;;;;-141.02;100.00;55844.97;5093190;28;20622;-86
2022/05/01 06:04:16;;;;;;;19.50;18.50;;;;;;;-141.02;100.00;55844.97;5092321;28;20286;-81
2022/05/01 06:06:43;;;;;;;16.48;15.77;;;;;;;-141.02;100.00;55844.97;5093491;28;20572;-80
2022/05/01 06:09:10;;;;;;;16.90;16.13;;;;;;;-141.02;100.00;55844.97;5092604;28;20200;-78
2022/05/01 06:11:38;;;;;;;16.63;15.93;;;;;;;-141.02;100.00;55844.97;5092836;28;20270;-84
2022/05/01 06:14:05;;;;;;;16.80;16.00;;;;;;;-141.02;100.00;55844.97;5093862;28;20283;-84
2022/05/01 06:16:32;;;;;;;16.42;15.73;;;;;;;-141.02;100.00;55844.97;5092454;28;20193;-82
2022/05/01 06:19:01;;;;;;;17.10;16.30;;;;;;;-141.02;100.00;55844.97;5092177;28;20193;-82
2022/05/01 06:21:28;;;;;;;16.83;16.10;;;;;;;-141.02;100.00;55844.97;5092450;28;20225;-85
2022/05/01 06:23:56;;;;;;;17.00;16.20;;;;;;;-141.02;100.00;55844.97;5092302;28;20281;-78
2022/05/01 06:26:23;;;;;;;16.83;16.10;;;;;;;-141.02;100.00;55844.97;5094980;28;20194;-84
2022/05/01 06:28:50;;;;;;;16.67;15.95;;;;;;;-141.02;100.00;55844.97;5096639;28;20201;-81
2022/05/01 06:31:17;;;;;;;17.00;16.20;;;;;;;-141.02;100.00;55844.97;5097259;28;20194;-90
2022/05/01 06:33:46;;;;;;;17.10;16.30;;;;;;;-141.02;100.00;55844.97;5096389;28;20221;-89
2022/05/01 06:36:15;;;;;;;17.13;16.33;;;;;;;-141.02;100.00;55844.97;5096284;28;20197;-86
2022/05/01 06:38:43;;;;;;;17.20;16.40;;;;;;;-141.02;100.00;55844.97;5096266;28;20292;-87
2022/05/01 06:41:10;;;;;;;17.50;16.70;;;;;;;-141.02;100.00;55844.97;5095756;28;20668;-82
2022/05/01 06:43:37;;;;;;;17.20;16.40;;;;;;;-141.02;100.00;55844.97;5095961;28;20285;-80
2022/05/01 06:46:04;;;;;;;17.40;16.60;;;;;;;-141.02;100.00;55844.97;5095882;28;20198;-78
2022/05/01 06:48:31;;;;;;;17.27;16.48;;;;;;;-141.02;100.00;55844.97;5096405;28;20215;-82
2022/05/01 06:50:59;;;;;;;16.92;16.15;;;;;;;-141.02;100.00;55844.97;5096203;28;20202;-81
2022/05/01 06:53:27;;;;;;;17.50;16.70;;;;;;;-141.02;100.00;55844.97;5095964;28;20642;-80
2022/05/01 06:55:56;;;;;;;17.02;16.23;;;;;;;-141.02;100.00;55844.97;5095482;28;20552;-78
2022/05/01 06:58:23;;;;;;;17.15;16.35;;;;;;;-141.02;100.00;55844.97;5096160;28;20251;-86
2022/05/01 07:00:52;;;;;;;16.83;16.08;;;;;;;-141.02;100.00;55844.97;5095699;28;20194;-84
2022/05/01 07:03:19;;;;;;;17.33;16.52;;;;;;;-141.02;100.00;55844.97;5095480;28;20597;-82
2022/05/01 07:05:46;;;;;;;17.50;16.70;;;;;;;-141.02;100.00;55844.97;5095647;28;20555;-83
2022/05/01 07:08:13;;;;;;;16.98;16.17;;;;;;;-141.02;100.00;55844.97;5096291;28;20198;-86
2022/05/01 07:10:41;;;;;;;16.90;16.10;;;;;;;-141.02;100.00;55844.97;5095611;28;20213;-83
2022/05/01 07:13:10;;;;;;;17.90;17.10;;;;;;;-141.02;100.00;55844.97;5095204;28;20730;-86
2022/05/01 07:15:37;;;;;;;17.23;16.42;;;;;;;-141.02;100.00;55844.97;5095327;28;20190;-75
2022/05/01 07:18:05;;;;;;;18.10;17.30;;;;;;;-141.02;100.00;55844.97;5095745;28;20193;-80
2022/05/01 07:20:34;;;;;;;18.25;17.45;;;;;;;-141.02;100.00;55844.97;5095471;28;20280;-86
2022/05/01 07:23:02;;;;;;;17.58;16.77;;;;;;;-141.02;100.00;55844.97;5095259;28;20190;-83
2022/05/01 07:25:29;;;;;;;17.50;16.70;;;;;;;-141.02;100.00;55844.97;5094990;28;20194;-80
2022/05/01 07:27:58;;;;;;;17.50;16.70;;;;;;;-141.02;100.00;55844.97;5095162;28;20198;-86
2022/05/01 07:30:25;;;;;;;16.65;15.95;;;;;;;-141.02;100.00;55844.97;5094951;28;20198;-85
2022/05/01 07:32:52;;;;;;;17.27;16.48;;;;;;;-141.02;100.00;55844.97;5095873;28;20675;-74
2022/05/01 07:35:19;;;;;;;17.27;16.48;;;;;;;-141.02;100.00;55844.97;5095076;28;20221;-86
2022/05/01 07:37:47;;;;;;;16.98;16.17;;;;;;;-141.02;100.00;55844.97;5095070;28;20601;-87
2022/05/01 07:40:14;;;;;;;17.92;17.08;;;;;;;-141.02;100.00;55844.97;5095290;28;20201;-86
2022/05/01 07:42:41;;;;;;;17.23;16.42;;;;;;;-141.02;100.00;55844.97;5094736;28;20194;-85
2022/05/01 07:45:10;;;;;;;16.95;16.15;;;;;;;-141.02;100.00;55844.97;5094538;28;20198;-84
2022/05/01 07:47:38;;;;;;;17.35;16.55;;;;;;;-141.02;100.00;55844.97;5094874;28;20216;-84
2022/05/01 07:50:07;;;;;;;17.00;16.20;;;;;;;-141.02;100.00;55844.97;5095891;28;20281;-86
2022/05/01 07:52:34;;;;;;;17.45;16.65;;;;;;;-141.02;100.00;55844.97;5094591;28;20200;-85
2022/05/01 07:55:01;;;;;;;17.42;16.63;;;;;;;-141.02;100.00;55844.97;5095017;28;20221;-83
2022/05/01 07:57:29;;;;;;;17.45;16.65;;;;;;;-141.02;100.00;55844.97;5094425;28;20196;-86
2022/05/01 07:59:56;;;;;;;17.13;16.33;;;;;;;-141.02;100.00;55844.97;5095154;28;20206;-88
2022/05/01 08:02:24;;;;;;;16.67;15.88;;;;;;;-141.02;100.00;55844.97;5094412;28;20225;-86
2022/05/01 08:04:50;;;;;;;17.40;16.60;;;;;;;-141.02;100.00;55844.97;5094246;28;20268;-81
2022/05/01 08:07:17;;;;;;;19.13;18.23;;;;;;;-141.02;100.00;55844.97;5094445;28;20225;-84
2022/05/01 08:09:44;;;;;;;17.40;16.60;;;;;;;-141.02;100.00;55844.97;5094439;28;20564;-84
2022/05/01 08:12:12;;;;;;;17.48;16.67;;;;;;;-141.02;100.00;55844.97;5094451;28;20194;-86
2022/05/01 08:14:41;;;;;;;17.17;16.38;;;;;;;-141.02;100.00;55844.97;5094332;28;20312;-82
2022/05/01 08:17:10;;;;;;;17.98;17.15;;;;;;;-141.02;100.00;55844.97;5094395;28;20198;-81
2022/05/01 08:22:23;;;;;;;17.33;16.52;;;;;;;-141.02;100.00;55844.97;5094706;28;20204;-80
2022/05/01 08:24:50;;;;;;;17.35;16.55;;;;;;;-141.02;100.00;55844.97;5094366;28;20190;-82
2022/05/01 08:27:17;;;;;;;17.98;17.17;;;;;;;-141.02;100.00;55844.97;5093919;28;20741;-86
2022/05/01 08:29:44;;;;;;;18.95;18.05;;;;;;;-141.02;100.00;55844.97;5093701;28;20670;-84
2022/05/01 08:32:11;;;;;;;17.63;16.83;;;;;;;-141.02;100.00;55844.97;5094047;28;20725;-80
2022/05/01 08:34:39;;;;;;;19.38;18.48;;;;;;;-141.02;100.00;55844.97;5093952;28;20261;-81
2022/05/01 08:37:06;;;;;;;18.80;18.00;;;;;;;-141.02;100.00;55844.97;5094626;28;20190;-80
2022/05/01 08:39:34;;;;;;;18.90;18.00;;;;;;;-141.02;100.00;55844.97;5093912;28;20200;-77
2022/05/01 08:42:03;;;;;;;19.27;18.38;;;;;;;-141.02;100.00;55844.97;5093889;28;20198;-83
2022/05/01 08:44:33;;;;;;;17.42;16.63;;;;;;;-141.02;100.00;55844.97;5093689;28;20231;-85
2022/05/01 08:47:24;;;;;;;19.70;18.80;;;;;;;-141.02;100.00;55844.97;5094100;28;20190;-82
2022/05/01 08:49:57;;;;;;;17.30;16.50;;;;;;;-141.02;100.00;55844.97;5088250;28;20198;-80
2022/05/01 08:52:27;;;;;;;17.13;16.33;;;;;;;-141.02;100.00;55844.97;5093631;28;20189;-79
2022/05/01 08:54:54;;;;;;;17.15;16.35;;;;;;;-141.02;100.00;55844.97;5093262;28;20275;-85
2022/05/01 08:57:21;;;;;;;17.60;16.80;;;;;;;-141.02;100.00;55844.97;5094005;28;20274;-78
2022/05/01 08:59:53;;;;;;;17.50;16.70;;;;;;;-141.02;100.00;55844.97;5093160;28;20281;-78
2022/05/01 09:02:20;;;;;;;17.05;16.25;;;;;;;-141.02;100.00;55844.97;5092988;28;20190;-80
2022/05/01 09:04:47;;;;;;;17.08;16.27;;;;;;;-141.02;100.00;55844.97;5093445;28;20313;-87
2022/05/01 09:07:16;;;;;;;17.13;16.33;;;;;;;-141.02;100.00;55844.97;5093152;28;20198;-77
2022/05/01 09:09:43;;;;;;;17.02;16.33;;;;;;;-141.02;100.00;55844.97;5093302;28;20618;-85
2022/05/01 09:14:56;;;;;;;17.35;16.55;;;;;;;-141.02;100.00;55844.97;5093408;28;20267;-83
2022/05/01 09:17:24;;;;;;;16.92;16.13;;;;;;;-141.02;100.00;55844.97;5093106;28;20204;-84
2022/05/01 09:19:53;;;;;;;16.67;15.98;;;;;;;-141.02;100.00;55844.97;5092707;28;20206;-79
2022/05/01 09:22:23;;;;;;;17.33;16.63;;;;;;;-141.02;100.00;55844.97;5092902;28;20297;-77
2022/05/01 09:24:53;;;;;;;17.58;16.77;;;;;;;-141.02;100.00;55844.97;5092890;28;20643;-79
2022/05/01 09:27:25;;;;;;;17.42;16.63;;;;;;;-141.02;100.00;55844.97;5093762;28;20186;-85
2022/05/01 09:30:08;;;;;;;18.10;17.30;;;;;;;-141.02;100.00;55844.97;5093149;28;20201;-82
2022/05/01 09:32:37;;;;;;;17.13;16.42;;;;;;;-141.02;100.00;55844.97;5092545;28;20185;-80
2022/05/01 09:35:04;;;;;;;17.63;16.83;;;;;;;-141.02;100.00;55844.97;5092900;28;20235;-82
2022/05/01 09:37:33;;;;;;;17.27;16.48;;;;;;;-141.02;100.00;55844.97;5092785;28;20576;-81
2022/05/01 09:40:00;;;;;;;17.13;16.33;;;;;;;-141.02;100.00;55844.97;5092559;28;20225;-82
2022/05/01 09:42:29;;;;;;;17.15;16.35;;;;;;;-141.02;100.00;55844.97;5092898;28;20203;-81
2022/05/01 09:45:20;;;;;;;17.30;16.50;;;;;;;-141.02;100.00;55844.97;5093444;28;20197;-75
2022/05/01 09:47:47;;;;;;;17.13;16.33;;;;;;;-141.02;100.00;55844.97;5082225;28;20276;-81
2022/05/01 09:50:16;;;;;;;17.60;16.80;;;;;;;-141.02;100.00;55844.97;5093056;28;20240;-85
2022/05/01 09:53:02;;;;;;;17.33;16.63;;;;;;;-141.02;100.00;55844.97;5092435;28;20652;-83
2022/05/01 09:55:30;;;;;;;17.33;16.52;;;;;;;-141.02;100.00;55844.97;5093919;28;20213;-82
2022/05/01 09:58:09;;;;;;;17.25;16.45;;;;;;;-141.02;100.00;55844.97;5092624;28;20276;-83
2022/05/01 10:00:38;;;;;;;17.35;16.55;;;;;;;-141.02;100.00;55844.97;5099230;28;20280;-85
2022/05/01 10:03:23;;;;;;;18.33;17.52;;;;;;;-141.02;100.00;55844.97;5099172;28;20189;-78
2022/05/01 10:05:51;;;;;;;17.30;16.55;;;;;;;-141.02;100.00;55844.97;5099372;28;20201;-79
2022/05/01 10:08:20;;;;;;;17.58;16.77;;;;;;;-141.02;100.00;55844.97;5098890;28;20656;-83
2022/05/01 10:10:49;;;;;;;18.55;17.55;;;;;;;-141.02;100.00;55844.97;5099764;28;20224;-80
2022/05/01 10:13:17;;;;;;;17.38;16.58;;;;;;;-141.02;100.00;55844.97;5099273;28;20197;-84
2022/05/01 10:15:44;;;;;;;17.52;16.73;;;;;;;-141.02;100.00;55844.97;5099273;28;20237;-77
2022/05/01 10:18:12;;;;;;;17.45;16.65;;;;;;;-141.02;100.00;55844.97;5099050;28;20289;-82
2022/05/01 10:20:42;;;;;;;17.70;16.90;;;;;;;-141.02;100.00;55844.97;5099184;28;20193;-81
2022/05/01 10:23:10;;;;;;;17.35;16.55;;;;;;;-141.02;100.00;55844.97;5099014;28;20255;-89
2022/05/01 10:25:42;;;;;;;18.17;17.38;;;;;;;-141.02;100.00;55844.97;5098716;28;20237;-78
2022/05/01 10:28:20;;;;;;;17.75;16.95;;;;;;;-141.02;100.00;55844.97;5098652;28;20182;-79
2022/05/01 10:34:10;;;;;;;17.83;17.02;;;;;;;-141.02;100.00;55844.97;5099049;28;20312;-85
2022/05/01 10:36:50;;;;;;;17.08;16.38;;;;;;;-141.02;100.00;55844.97;5099188;28;20229;-83
2022/05/01 10:39:20;;;;;;;17.50;16.70;;;;;;;-141.02;100.00;55844.97;5098989;28;20192;-73
2022/05/01 10:41:49;;;;;;;17.42;16.63;;;;;;;-141.02;100.00;55844.97;5099107;28;20217;-80
2022/05/01 10:44:30;;;;;;;17.08;16.38;;;;;;;-141.02;100.00;55844.97;5098650;28;20641;-78
2022/05/01 10:47:05;;;;;;;17.13;16.33;;;;;;;-141.02;100.00;55844.97;5099123;28;20198;-83
2022/05/01 10:49:37;;;;;;;17.08;16.27;;;;;;;-141.02;100.00;55844.97;5098940;28;20189;-76
2022/05/01 10:52:19;;;;;;;17.25;16.45;;;;;;;-141.02;100.00;55844.97;5098529;28;20284;-82
2022/05/01 10:54:55;;;;;;;17.60;16.80;;;;;;;-141.02;100.00;55844.97;5098877;28;20225;-77
2022/05/01 10:57:25;;;;;;;17.38;16.58;;;;;;;-141.02;100.00;55844.97;5098720;28;20272;-81
2022/05/01 11:00:05;;;;;;;17.35;16.55;;;;;;;-141.02;100.00;55844.97;5098327;28;20659;-80
2022/05/01 11:02:36;;;;;;;16.70;16.00;;;;;;;-141.02;100.00;55844.97;5098739;28;20659;-73
2022/05/01 11:05:04;;;;;;;17.33;16.52;;;;;;;-141.02;100.00;55844.97;5098199;28;20320;-76
2022/05/01 11:07:34;;;;;;;17.70;16.90;;;;;;;-141.02;100.00;55844.97;5098812;28;20227;-82
2022/05/01 11:10:02;;;;;;;17.73;16.92;;;;;;;-141.02;100.00;55844.97;5098655;28;20660;-77
2022/05/01 11:12:32;;;;;;;17.88;17.08;;;;;;;-141.02;100.00;55844.97;5094846;28;20713;-81
2022/05/01 11:15:00;;;;;;;19.00;18.10;;;;;;;-141.02;100.00;55844.97;5095524;28;20214;-81
2022/05/01 11:17:52;;;;;;;18.50;17.60;;;;;;;-141.02;100.00;55844.97;5095524;28;20197;-84
2022/05/01 11:20:35;;;;;;;18.20;17.40;;;;;;;-141.02;100.00;55844.97;5092884;28;20197;-79
2022/05/01 11:23:29;;;;;;;17.70;16.90;;;;;;;-141.02;100.00;55844.97;5095162;28;20267;-74